TimePDT,TemperatureF,Dew PointF,Humidity,Sea Level PressureIn,VisibilityMPH,Wind Direction,Wind SpeedMPH,Gust SpeedMPH,PrecipitationIn,Events,Conditions,WindDirDegrees,DateUTC
12:56 AM,68.0,21.9,17,29.78,10.0,WSW,6.9,-,N/A,,Clear,240,2013-06-14 07:56:00
1:56 AM,66.0,21.9,19,29.79,10.0,SSE,6.9,-,N/A,,Clear,160,2013-06-14 08:56:00
2:56 AM,63.0,21.9,21,29.81,10.0,Calm,Calm,-,N/A,,Clear,0,2013-06-14 09:56:00
3:56 AM,57.0,19.9,24,29.82,10.0,SW,3.5,-,N/A,,Clear,220,2013-06-14 10:56:00
4:56 AM,54.0,19.9,26,29.83,10.0,SSW,3.5,-,N/A,,Clear,200,2013-06-14 11:56:00
5:56 AM,55.9,21.9,27,29.84,10.0,SSW,3.5,-,N/A,,Clear,210,2013-06-14 12:56:00
6:56 AM,64.0,23.0,21,29.85,10.0,Calm,Calm,-,N/A,,Clear,0,2013-06-14 13:56:00
7:56 AM,70.0,24.1,18,29.87,10.0,Calm,Calm,-,N/A,,Clear,0,2013-06-14 14:56:00
8:56 AM,78.1,25.0,14,29.86,10.0,Calm,Calm,-,N/A,,Clear,0,2013-06-14 15:56:00
9:56 AM,84.9,19.9,9,29.86,10.0,ENE,3.5,-,N/A,,Clear,70,2013-06-14 16:56:00
10:56 AM,84.9,15.1,7,29.84,10.0,Variable,4.6,-,N/A,,Clear,0,2013-06-14 17:56:00
11:56 AM,89.1,14.0,6,29.83,10.0,SSW,4.6,-,N/A,,Clear,200,2013-06-14 18:56:00
12:56 PM,91.0,12.0,5,29.81,10.0,SE,8.1,-,N/A,,Clear,130,2013-06-14 19:56:00
1:56 PM,91.9,7.0,4,29.78,10.0,Calm,Calm,-,N/A,,Clear,0,2013-06-14 20:56:00
2:56 PM,93.9,6.1,4,29.75,10.0,Variable,4.6,-,N/A,,Clear,0,2013-06-14 21:56:00
3:56 PM,95.0,6.1,4,29.73,10.0,Variable,3.5,-,N/A,,Clear,0,2013-06-14 22:56:00
4:56 PM,97.0,5.0,4,29.70,10.0,SSE,12.7,24.2,N/A,,Clear,160,2013-06-14 23:56:00
5:56 PM,96.1,8.1,4,29.70,10.0,SSW,11.5,24.2,N/A,,Clear,200,2013-06-15 00:56:00
6:56 PM,93.9,19.0,7,29.68,10.0,South,17.3,-,N/A,,Clear,190,2013-06-15 01:56:00
7:56 PM,89.1,30.9,12,29.70,10.0,SSW,15.0,-,N/A,,Clear,200,2013-06-15 02:56:00
8:56 PM,84.0,30.9,15,29.71,10.0,SSW,11.5,-,N/A,,Partly Cloudy,200,2013-06-15 03:56:00
9:56 PM,80.1,30.0,16,29.73,10.0,SSW,11.5,-,N/A,,Partly Cloudy,210,2013-06-15 04:56:00
10:56 PM,77.0,30.0,18,29.75,10.0,South,10.4,-,N/A,,Clear,180,2013-06-15 05:56:00
11:56 PM,73.9,34.0,23,29.74,10.0,SSE,8.1,-,N/A,,Clear,160,2013-06-15 06:56:00